Time;durP1;ratioP1;P1;durP2;ratioP2;P2;SDS_P1;SDS_P2;PMS_P1;PMS_P2;Temp;Humidity;BMP_temperature;BMP_pressure;BME280_temperature;BME280_humidity;BME280_pressure;Samples;Min_cycle;Max_cycle;Signal;HPM_P1;HPM_P2
2023/01/13 00:00:21;;;;;;;54.05;9.27;;;;;;;;;;5019905;28;20239;-73
2023/01/13 00:02:48;;;;;;;53.72;8.63;;;;;;;;;;5019300;28;20566;-73
2023/01/13 00:05:14;;;;;;;66.70;10.30;;;;;;;;;;5021928;28;20450;-72
2023/01/13 00:07:39;;;;;;;53.78;8.27;;;;;;;;;;5021631;28;20025;-72
2023/01/13 00:10:06;;;;;;;66.28;9.80;;;;;;;;;;5021845;28;20541;-73
2023/01/13 00:12:32;;;;;;;59.95;9.93;;;;;;;;;;5021800;28;20029;-72
2023/01/13 00:14:57;;;;;;;59.67;10.57;;;;;;;;;;5019411;28;20059;-73
2023/01/13 00:17:23;;;;;;;58.50;10.48;;;;;;;;;;5021536;28;20188;-72
2023/01/13 00:19:49;;;;;;;69.03;10.70;;;;;;;;;;5021775;28;20044;-72
2023/01/13 00:22:15;;;;;;;67.00;10.63;;;;;;;;;;5019546;28;20052;-72
2023/01/13 00:24:43;;;;;;;70.45;10.82;;;;;;;;;;5021993;28;20440;-73
2023/01/13 00:27:08;;;;;;;65.95;10.52;;;;;;;;;;5019350;28;20083;-72
2023/01/13 00:29:34;;;;;;;76.10;10.27;;;;;;;;;;5021585;28;20544;-74
2023/01/13 00:31:59;;;;;;;67.95;9.90;;;;;;;;;;5020955;28;20033;-73
2023/01/13 00:34:25;;;;;;;60.42;9.20;;;;;;;;;;5021774;28;20041;-72
2023/01/13 00:36:50;;;;;;;66.97;10.20;;;;;;;;;;5020616;28;20040;-72
2023/01/13 00:39:16;;;;;;;63.30;9.98;;;;;;;;;;5021273;28;20111;-73
2023/01/13 00:44:25;;;;;;;70.65;10.25;;;;;;;;;;5021643;28;20033;-72
2023/01/13 00:46:50;;;;;;;68.55;10.40;;;;;;;;;;5019244;28;20090;-72
2023/01/13 00:49:16;;;;;;;73.50;9.95;;;;;;;;;;5019121;28;20033;-72
2023/01/13 00:51:41;;;;;;;71.80;10.10;;;;;;;;;;5020273;28;20474;-73
2023/01/13 00:54:06;;;;;;;59.88;8.73;;;;;;;;;;5024482;28;20539;-73
2023/01/13 00:56:32;;;;;;;65.63;9.57;;;;;;;;;;5023607;28;20464;-73
2023/01/13 00:58:57;;;;;;;65.38;10.65;;;;;;;;;;5022496;28;20416;-74
2023/01/13 01:01:23;;;;;;;54.35;9.45;;;;;;;;;;5023080;28;20037;-73
2023/01/13 01:03:49;;;;;;;77.35;10.00;;;;;;;;;;5024468;28;20033;-73
2023/01/13 01:06:16;;;;;;;66.45;10.07;;;;;;;;;;5025300;28;20037;-73
2023/01/13 01:08:41;;;;;;;66.57;10.77;;;;;;;;;;5024341;28;20140;-72
2023/01/13 01:11:08;;;;;;;75.78;11.45;;;;;;;;;;5025709;28;20416;-73
2023/01/13 01:13:33;;;;;;;73.53;11.10;;;;;;;;;;5022464;28;20421;-73
2023/01/13 01:15:59;;;;;;;72.82;10.52;;;;;;;;;;5023148;28;20271;-72
2023/01/13 01:18:24;;;;;;;66.65;9.85;;;;;;;;;;5022588;28;20783;-73
2023/01/13 01:20:49;;;;;;;67.97;10.13;;;;;;;;;;5023014;28;20041;-73
2023/01/13 01:23:15;;;;;;;54.47;8.48;;;;;;;;;;5006006;28;20415;-73
2023/01/13 01:25:41;;;;;;;62.47;9.55;;;;;;;;;;5024913;28;20044;-73
2023/01/13 01:28:06;;;;;;;62.38;10.23;;;;;;;;;;5025121;28;20049;-73
2023/01/13 01:30:34;;;;;;;65.75;9.88;;;;;;;;;;5022642;28;20577;-73
2023/01/13 01:33:01;;;;;;;57.72;10.35;;;;;;;;;;5024981;28;20215;-73
2023/01/13 01:35:27;;;;;;;55.53;10.77;;;;;;;;;;5024892;28;20144;-73
2023/01/13 01:37:52;;;;;;;67.13;9.82;;;;;;;;;;5024401;28;20373;-72
2023/01/13 01:40:17;;;;;;;60.38;8.88;;;;;;;;;;5024738;28;20595;-73
2023/01/13 01:45:30;;;;;;;55.22;9.60;;;;;;;;;;5020406;28;20655;-73
2023/01/13 01:47:59;;;;;;;75.50;10.70;;;;;;;;;;5012813;28;20041;-73
2023/01/13 01:50:25;;;;;;;63.75;10.63;;;;;;;;;;5016545;28;20068;-74
2023/01/13 01:52:53;;;;;;;62.85;9.93;;;;;;;;;;5022688;28;20036;-73
2023/01/13 01:55:21;;;;;;;60.88;9.43;;;;;;;;;;5006689;28;20152;-73
2023/01/13 01:57:52;;;;;;;64.38;10.10;;;;;;;;;;5004156;28;20029;-73
2023/01/13 02:00:18;;;;;;;57.88;9.48;;;;;;;;;;5019470;28;20287;-74
2023/01/13 02:02:46;;;;;;;65.72;10.07;;;;;;;;;;5021508;28;20021;-72
2023/01/13 02:05:12;;;;;;;70.95;11.02;;;;;;;;;;5023426;28;20033;-74
2023/01/13 02:07:39;;;;;;;65.35;9.63;;;;;;;;;;5022202;28;20433;-73
2023/01/13 02:10:06;;;;;;;70.03;9.82;;;;;;;;;;5021988;28;20021;-72
2023/01/13 02:12:31;;;;;;;72.50;11.45;;;;;;;;;;5023362;28;20528;-73
2023/01/13 02:15:17;;;;;;;68.68;9.02;;;;;;;;;;5022413;28;20036;-73
2023/01/13 02:17:42;;;;;;;65.63;10.27;;;;;;;;;;4991610;28;20025;-72
2023/01/13 02:20:10;;;;;;;52.65;9.00;;;;;;;;;;5020949;28;20067;-74
2023/01/13 02:22:50;;;;;;;69.20;11.07;;;;;;;;;;5023688;28;20455;-72
2023/01/13 02:25:21;;;;;;;61.15;10.05;;;;;;;;;;5023348;28;20575;-72
2023/01/13 02:28:02;;;;;;;65.70;8.95;;;;;;;;;;5023083;28;20052;-72
2023/01/13 02:33:40;;;;;;;65.55;10.38;;;;;;;;;;5022846;28;20040;-73
2023/01/13 02:36:18;;;;;;;77.82;10.48;;;;;;;;;;5022098;28;20409;-73
2023/01/13 02:38:43;;;;;;;70.07;9.57;;;;;;;;;;5003443;28;20072;-73
2023/01/13 02:44:09;;;;;;;58.42;8.18;;;;;;;;;;5020624;28;20056;-73
2023/01/13 02:46:56;;;;;;;63.15;10.18;;;;;;;;;;5031166;28;20036;-74
2023/01/13 02:49:24;;;;;;;64.15;8.80;;;;;;;;;;5042830;28;20036;-74
2023/01/13 02:51:51;;;;;;;65.47;9.32;;;;;;;;;;5040885;28;20078;-74
2023/01/13 02:54:19;;;;;;;71.72;10.55;;;;;;;;;;5040809;28;20032;-73
2023/01/13 02:56:49;;;;;;;59.03;9.68;;;;;;;;;;5041905;28;20032;-73
2023/01/13 02:59:15;;;;;;;58.40;9.48;;;;;;;;;;5022697;28;20044;-73
2023/01/13 03:01:41;;;;;;;50.85;8.65;;;;;;;;;;5020854;28;20032;-72
2023/01/13 03:04:10;;;;;;;56.80;8.95;;;;;;;;;;5020136;28;20040;-73
2023/01/13 03:06:44;;;;;;;64.63;9.13;;;;;;;;;;5023402;28;20025;-73
2023/01/13 03:09:13;;;;;;;65.35;9.77;;;;;;;;;;5022568;28;20117;-73
2023/01/13 03:12:04;;;;;;;60.15;8.27;;;;;;;;;;5022354;28;20094;-73
2023/01/13 03:14:46;;;;;;;55.65;8.93;;;;;;;;;;5021955;28;20033;-72
2023/01/13 03:17:27;;;;;;;51.50;7.40;;;;;;;;;;5022362;28;20088;-72
2023/01/13 03:19:55;;;;;;;48.47;8.25;;;;;;;;;;5022612;28;20608;-74
2023/01/13 03:22:32;;;;;;;53.78;8.32;;;;;;;;;;5022476;28;20593;-71
2023/01/13 03:25:02;;;;;;;41.08;7.55;;;;;;;;;;5022529;28;20414;-73
2023/01/13 03:27:48;;;;;;;50.65;7.97;;;;;;;;;;5022220;28;20484;-73
2023/01/13 03:30:17;;;;;;;50.78;7.80;;;;;;;;;;5022287;28;20182;-73
2023/01/13 03:32:43;;;;;;;42.53;7.65;;;;;;;;;;5021945;28;20029;-73
2023/01/13 03:35:18;;;;;;;43.50;7.72;;;;;;;;;;5022237;28;20432;-73
2023/01/13 03:37:52;;;;;;;49.33;7.43;;;;;;;;;;5020279;28;20033;-74
2023/01/13 03:40:23;;;;;;;49.53;7.00;;;;;;;;;;5033017;28;20099;-73
2023/01/13 03:45:38;;;;;;;44.80;7.30;;;;;;;;;;5019115;28;20566;-73
2023/01/13 03:48:09;;;;;;;47.38;8.05;;;;;;;;;;5019456;28;20603;-73
2023/01/13 03:50:38;;;;;;;52.40;8.65;;;;;;;;;;5021914;28;20047;-73
2023/01/13 03:53:12;;;;;;;38.28;6.43;;;;;;;;;;5021937;28;20783;-73
2023/01/13 03:55:40;;;;;;;48.73;7.83;;;;;;;;;;5019640;28;20032;-73
2023/01/13 03:58:13;;;;;;;51.13;7.57;;;;;;;;;;5021726;28;20490;-73
2023/01/13 04:00:48;;;;;;;52.08;7.50;;;;;;;;;;5019782;28;20032;-74
2023/01/13 04:03:17;;;;;;;46.97;8.05;;;;;;;;;;5019663;28;20392;-73
2023/01/13 04:05:45;;;;;;;55.65;8.57;;;;;;;;;;5022186;28;20478;-73
2023/01/13 04:08:25;;;;;;;50.70;7.50;;;;;;;;;;5019490;28;20658;-72
2023/01/13 04:10:51;;;;;;;52.90;8.98;;;;;;;;;;5021468;28;20025;-72
2023/01/13 04:13:18;;;;;;;45.38;7.55;;;;;;;;;;5019694;28;20158;-72
2023/01/13 04:15:44;;;;;;;41.25;6.95;;;;;;;;;;5019500;28;20277;-73
2023/01/13 04:18:17;;;;;;;37.20;7.13;;;;;;;;;;5022169;28;20542;-74
2023/01/13 04:20:44;;;;;;;53.55;7.88;;;;;;;;;;5021828;28;20075;-72
2023/01/13 04:23:09;;;;;;;47.88;7.57;;;;;;;;;;5021854;28;20037;-73
2023/01/13 04:25:35;;;;;;;50.53;7.70;;;;;;;;;;5001874;28;20060;-73
2023/01/13 04:28:01;;;;;;;45.38;6.43;;;;;;;;;;5001108;28;20048;-72
2023/01/13 04:30:26;;;;;;;52.67;8.20;;;;;;;;;;5001521;28;20108;-72
2023/01/13 04:32:51;;;;;;;47.60;7.57;;;;;;;;;;5001859;28;20128;-73
2023/01/13 04:35:16;;;;;;;43.67;7.65;;;;;;;;;;5032239;28;20621;-72
2023/01/13 04:37:42;;;;;;;45.47;6.72;;;;;;;;;;4999709;28;20038;-73
2023/01/13 04:40:08;;;;;;;41.72;7.40;;;;;;;;;;4998700;28;20640;-72
2023/01/13 04:42:33;;;;;;;50.95;7.45;;;;;;;;;;5001838;28;20025;-72
2023/01/13 04:45:00;;;;;;;40.38;6.47;;;;;;;;;;5018108;28;20060;-72
2023/01/13 04:47:26;;;;;;;40.10;7.13;;;;;;;;;;5036069;28;20033;-73
2023/01/13 04:49:51;;;;;;;50.63;7.57;;;;;;;;;;5021302;28;20555;-72
2023/01/13 04:52:16;;;;;;;46.72;7.80;;;;;;;;;;5021182;28;20055;-72
2023/01/13 04:54:41;;;;;;;44.92;6.70;;;;;;;;;;5020635;28;20078;-73
2023/01/13 04:57:07;;;;;;;58.50;8.20;;;;;;;;;;5021111;28;20340;-73
2023/01/13 04:59:32;;;;;;;48.63;7.38;;;;;;;;;;5018973;28;20305;-73
2023/01/13 05:01:57;;;;;;;55.03;8.20;;;;;;;;;;5018573;28;20029;-73
2023/01/13 05:04:23;;;;;;;45.63;6.43;;;;;;;;;;5021080;28;20057;-71
2023/01/13 05:06:48;;;;;;;49.75;7.75;;;;;;;;;;5018805;28;20095;-74
2023/01/13 05:09:14;;;;;;;45.60;7.72;;;;;;;;;;5019233;28;20107;-73
2023/01/13 05:17:13;;;;;;;50.28;8.60;;;;;;;;;;5019069;28;20183;-72
2023/01/13 05:19:39;;;;;;;47.40;8.30;;;;;;;;;;5021028;28;20045;-73
2023/01/13 05:27:32;;;;;;;44.80;6.35;;;;;;;;;;5020208;28;20181;-73
2023/01/13 05:29:58;;;;;;;49.65;7.13;;;;;;;;;;5021155;28;20052;-72
2023/01/13 05:32:23;;;;;;;47.58;7.53;;;;;;;;;;5018297;28;20033;-73
2023/01/13 05:34:49;;;;;;;50.38;7.38;;;;;;;;;;5019249;28;20136;-72
2023/01/13 05:37:14;;;;;;;46.15;7.43;;;;;;;;;;5020984;28;20176;-73
2023/01/13 05:45:08;;;;;;;52.30;8.23;;;;;;;;;;5024760;28;20323;-73
2023/01/13 05:47:34;;;;;;;54.47;7.63;;;;;;;;;;5040880;28;20059;-74
2023/01/13 05:49:59;;;;;;;52.53;8.77;;;;;;;;;;5044195;28;20028;-74
2023/01/13 05:52:25;;;;;;;44.50;7.32;;;;;;;;;;5008922;28;20125;-74
2023/01/13 05:54:52;;;;;;;56.15;9.00;;;;;;;;;;5029069;28;20454;-73
2023/01/13 05:57:17;;;;;;;48.10;9.60;;;;;;;;;;5022167;28;20075;-74
2023/01/13 05:59:43;;;;;;;52.15;8.52;;;;;;;;;;5024276;28;20045;-74
2023/01/13 06:02:08;;;;;;;45.38;7.68;;;;;;;;;;5024673;28;20134;-74
2023/01/13 06:04:34;;;;;;;48.90;6.82;;;;;;;;;;5024296;28;20136;-73
2023/01/13 06:06:59;;;;;;;44.35;7.07;;;;;;;;;;5023785;28;20086;-73
2023/01/13 06:09:24;;;;;;;49.08;7.20;;;;;;;;;;5023069;28;20258;-73
2023/01/13 06:11:49;;;;;;;51.20;8.23;;;;;;;;;;5023128;28;20725;-72
2023/01/13 06:14:15;;;;;;;56.17;8.45;;;;;;;;;;5023392;28;20128;-74
2023/01/13 06:16:40;;;;;;;55.25;8.32;;;;;;;;;;5039183;28;20037;-74
2023/01/13 06:19:07;;;;;;;56.42;9.07;;;;;;;;;;5035536;28;22191;-75
2023/01/13 06:21:36;;;;;;;56.00;8.57;;;;;;;;;;5002547;28;20040;-76
2023/01/13 06:24:01;;;;;;;46.83;8.48;;;;;;;;;;5016043;28;20064;-74
2023/01/13 06:26:29;;;;;;;49.90;8.48;;;;;;;;;;5033750;28;20352;-74
2023/01/13 06:28:57;;;;;;;43.08;6.95;;;;;;;;;;5037321;28;20060;-75
2023/01/13 06:31:22;;;;;;;54.42;8.15;;;;;;;;;;5032784;28;20102;-73
2023/01/13 06:33:49;;;;;;;66.03;9.43;;;;;;;;;;5025381;28;20418;-73
2023/01/13 06:36:38;;;;;;;70.90;9.98;;;;;;;;;;5023060;28;20555;-72
2023/01/13 06:39:03;;;;;;;46.83;8.30;;;;;;;;;;5015103;28;20049;-71
2023/01/13 06:44:17;;;;;;;58.35;8.13;;;;;;;;;;5023949;28;20458;-73
2023/01/13 06:46:42;;;;;;;55.80;8.10;;;;;;;;;;5029075;28;20040;-74
2023/01/13 06:49:07;;;;;;;51.17;8.40;;;;;;;;;;5035056;28;20252;-74
2023/01/13 06:51:33;;;;;;;54.50;7.43;;;;;;;;;;5031715;28;20410;-74
2023/01/13 06:53:58;;;;;;;45.10;7.68;;;;;;;;;;5032367;28;20029;-75
2023/01/13 06:56:23;;;;;;;63.13;8.95;;;;;;;;;;5034774;28;20075;-75
2023/01/13 06:58:49;;;;;;;51.45;9.18;;;;;;;;;;5036900;28;20091;-75
2023/01/13 07:01:14;;;;;;;51.72;8.38;;;;;;;;;;5034509;28;20045;-75
2023/01/13 07:03:41;;;;;;;49.40;8.27;;;;;;;;;;5031048;28;20494;-74
2023/01/13 07:06:09;;;;;;;50.92;7.43;;;;;;;;;;5034011;28;20463;-74
2023/01/13 07:08:34;;;;;;;57.08;8.88;;;;;;;;;;5032579;28;20025;-74
2023/01/13 07:11:03;;;;;;;54.75;8.05;;;;;;;;;;5033500;28;20075;-73
2023/01/13 07:16:19;;;;;;;50.33;8.05;;;;;;;;;;5033735;28;20412;-73
2023/01/13 07:18:44;;;;;;;52.47;9.82;;;;;;;;;;5029327;28;20041;-75
2023/01/13 07:21:11;;;;;;;59.85;8.25;;;;;;;;;;5033018;28;20083;-74
2023/01/13 07:23:38;;;;;;;62.88;9.32;;;;;;;;;;5030840;28;20037;-75
2023/01/13 07:26:04;;;;;;;42.17;7.10;;;;;;;;;;5059619;28;20033;-75
2023/01/13 07:28:30;;;;;;;50.25;9.25;;;;;;;;;;5026040;28;20037;-75
2023/01/13 07:30:56;;;;;;;46.08;8.35;;;;;;;;;;5031673;28;20392;-76
2023/01/13 07:33:21;;;;;;;52.83;8.50;;;;;;;;;;5028871;28;20036;-75
2023/01/13 07:35:47;;;;;;;49.42;9.70;;;;;;;;;;5030204;28;20076;-75
2023/01/13 07:38:14;;;;;;;43.78;8.13;;;;;;;;;;5027239;28;20314;-76
2023/01/13 07:40:39;;;;;;;49.95;7.38;;;;;;;;;;5033288;28;20104;-77
2023/01/13 07:45:48;;;;;;;53.45;9.00;;;;;;;;;;5036132;28;20106;-76
2023/01/13 07:48:14;;;;;;;57.03;9.13;;;;;;;;;;5040582;28;20112;-75
2023/01/13 07:50:39;;;;;;;38.53;6.18;;;;;;;;;;5029722;28;20588;-74
2023/01/13 07:53:05;;;;;;;48.28;7.57;;;;;;;;;;5012498;28;20119;-75
2023/01/13 07:55:30;;;;;;;49.45;8.02;;;;;;;;;;5017237;28;20104;-76
2023/01/13 07:57:56;;;;;;;47.50;6.85;;;;;;;;;;5015935;28;20548;-75
2023/01/13 08:00:21;;;;;;;50.08;7.32;;;;;;;;;;5003141;28;20046;-72
2023/01/13 08:02:47;;;;;;;53.03;7.30;;;;;;;;;;4983703;28;20086;-72
2023/01/13 08:05:15;;;;;;;44.28;8.57;;;;;;;;;;4983446;28;20611;-72
2023/01/13 08:07:42;;;;;;;48.97;7.22;;;;;;;;;;5002268;28;20063;-72
2023/01/13 08:10:08;;;;;;;51.85;7.75;;;;;;;;;;4981555;28;20099;-72
2023/01/13 08:15:18;;;;;;;49.17;7.78;;;;;;;;;;4992264;28;20048;-74
2023/01/13 08:17:45;;;;;;;55.72;8.63;;;;;;;;;;5002475;28;20029;-73
2023/01/13 08:20:11;;;;;;;52.38;8.13;;;;;;;;;;5014794;28;20034;-74
2023/01/13 08:22:37;;;;;;;48.63;7.95;;;;;;;;;;5000080;28;20394;-74
2023/01/13 08:25:02;;;;;;;57.97;8.55;;;;;;;;;;4999618;28;20029;-74
2023/01/13 08:27:33;;;;;;;53.72;7.85;;;;;;;;;;5002032;28;20340;-72
2023/01/13 08:29:58;;;;;;;49.65;7.80;;;;;;;;;;4999296;28;20048;-73
2023/01/13 08:32:24;;;;;;;54.10;7.63;;;;;;;;;;5000273;28;20033;-73
2023/01/13 08:34:49;;;;;;;42.75;7.47;;;;;;;;;;5002389;28;20041;-73
2023/01/13 08:37:15;;;;;;;48.03;7.35;;;;;;;;;;5002695;28;20025;-74
2023/01/13 08:39:40;;;;;;;56.60;8.60;;;;;;;;;;5001915;28;20052;-72
2023/01/13 08:42:05;;;;;;;53.03;8.30;;;;;;;;;;4998812;28;20033;-73
2023/01/13 08:44:31;;;;;;;52.42;8.48;;;;;;;;;;4999072;28;20040;-74
2023/01/13 08:46:57;;;;;;;44.40;8.18;;;;;;;;;;5022590;28;20209;-74
2023/01/13 08:49:23;;;;;;;52.60;8.27;;;;;;;;;;5037893;28;20033;-72
2023/01/13 08:51:49;;;;;;;37.13;6.57;;;;;;;;;;5021218;28;20033;-73
2023/01/13 08:54:15;;;;;;;46.17;7.32;;;;;;;;;;5021287;28;20041;-73
2023/01/13 08:56:41;;;;;;;49.10;8.32;;;;;;;;;;5021714;28;20039;-74
2023/01/13 08:59:16;;;;;;;58.78;8.30;;;;;;;;;;5022103;28;20037;-72
2023/01/13 09:01:41;;;;;;;49.28;6.60;;;;;;;;;;5017052;28;20033;-74
2023/01/13 09:04:14;;;;;;;52.15;8.77;;;;;;;;;;5022551;28;20428;-72
2023/01/13 09:06:39;;;;;;;51.95;8.15;;;;;;;;;;5021529;28;20474;-74
2023/01/13 09:09:04;;;;;;;37.03;6.78;;;;;;;;;;5003704;28;20052;-75
2023/01/13 09:14:16;;;;;;;57.63;8.35;;;;;;;;;;5024135;28;20033;-75
2023/01/13 09:16:41;;;;;;;47.65;7.18;;;;;;;;;;5025473;28;20071;-72
2023/01/13 09:19:07;;;;;;;50.00;8.32;;;;;;;;;;5025031;28;20033;-73
2023/01/13 09:21:32;;;;;;;44.47;6.93;;;;;;;;;;5031815;28;20056;-74
2023/01/13 09:23:57;;;;;;;43.70;6.78;;;;;;;;;;5024967;28;20068;-73
2023/01/13 09:26:22;;;;;;;42.10;6.68;;;;;;;;;;5025225;28;20163;-73
2023/01/13 09:28:48;;;;;;;63.60;8.57;;;;;;;;;;5024742;28;20679;-74
2023/01/13 09:31:14;;;;;;;46.30;8.80;;;;;;;;;;5024882;28;20029;-73
2023/01/13 09:36:23;;;;;;;52.47;8.13;;;;;;;;;;5024527;28;20029;-74
2023/01/13 09:38:49;;;;;;;49.67;7.63;;;;;;;;;;5024405;28;20072;-73
2023/01/13 09:43:52;;;;;;;52.95;7.97;;;;;;;;;;5024450;28;20422;-73
2023/01/13 09:44:05;;;;;;;63.20;8.45;;;;;;;;;;5024699;28;20037;-74
2023/01/13 09:46:45;;;;;;;54.40;7.25;;;;;;;;;;5032017;28;20032;-73
2023/01/13 09:49:22;;;;;;;52.92;8.73;;;;;;;;;;5030964;28;20052;-74
2023/01/13 09:51:51;;;;;;;42.33;6.53;;;;;;;;;;5024305;28;20943;-74
2023/01/13 09:54:35;;;;;;;39.67;6.55;;;;;;;;;;5023897;28;20082;-74
2023/01/13 09:57:00;;;;;;;48.15;7.80;;;;;;;;;;5026506;28;20151;-74
2023/01/13 09:59:31;;;;;;;45.28;7.13;;;;;;;;;;5065992;28;20122;-73
2023/01/13 10:02:19;;;;;;;49.78;6.32;;;;;;;;;;5022639;28;20040;-75
2023/01/13 10:05:05;;;;;;;46.25;6.82;;;;;;;;;;4984197;28;20461;-74
2023/01/13 10:07:35;;;;;;;53.90;7.32;;;;;;;;;;5012524;28;20040;-74
2023/01/13 10:10:01;;;;;;;51.63;8.45;;;;;;;;;;5023477;28;20266;-73
2023/01/13 10:15:14;;;;;;;51.45;6.53;;;;;;;;;;5023828;28;20455;-74
2023/01/13 10:17:43;;;;;;;47.75;8.02;;;;;;;;;;5054613;28;20193;-74
2023/01/13 10:20:15;;;;;;;42.00;7.05;;;;;;;;;;5023768;28;20048;-74
2023/01/13 10:22:47;;;;;;;38.03;6.43;;;;;;;;;;5024150;28;20033;-75
2023/01/13 10:25:26;;;;;;;47.03;7.82;;;;;;;;;;5003329;28;20167;-74
2023/01/13 10:27:54;;;;;;;45.72;7.15;;;;;;;;;;5020080;28;20094;-75
2023/01/13 10:30:26;;;;;;;59.17;9.05;;;;;;;;;;5023612;28;20513;-75
2023/01/13 10:32:56;;;;;;;49.78;7.00;;;;;;;;;;5022732;28;20765;-73
2023/01/13 10:35:41;;;;;;;45.55;7.68;;;;;;;;;;5021176;28;20569;-74
2023/01/13 10:38:14;;;;;;;44.22;7.32;;;;;;;;;;5020937;28;20165;-75
2023/01/13 10:40:46;;;;;;;44.33;7.20;;;;;;;;;;5023599;28;20441;-78
2023/01/13 10:43:11;;;;;;;48.75;6.90;;;;;;;;;;5023049;28;20282;-74
2023/01/13 10:45:37;;;;;;;52.58;7.32;;;;;;;;;;5023676;28;20162;-74
2023/01/13 10:48:05;;;;;;;46.20;7.82;;;;;;;;;;5020220;28;20252;-75
2023/01/13 10:50:33;;;;;;;54.13;7.75;;;;;;;;;;5036170;28;21581;-76
2023/01/13 10:52:59;;;;;;;41.72;6.80;;;;;;;;;;5040707;28;20491;-75
2023/01/13 10:55:33;;;;;;;46.75;6.85;;;;;;;;;;5041270;28;20120;-75
2023/01/13 10:58:18;;;;;;;53.10;8.02;;;;;;;;;;5043081;28;20673;-76
2023/01/13 11:00:46;;;;;;;49.60;6.97;;;;;;;;;;5038640;28;20040;-74
2023/01/13 11:03:23;;;;;;;55.25;6.43;;;;;;;;;;5039272;28;20044;-75
2023/01/13 11:05:51;;;;;;;44.00;7.25;;;;;;;;;;5038106;28;20440;-76
2023/01/13 11:08:17;;;;;;;46.47;7.22;;;;;;;;;;5034009;28;20379;-74
2023/01/13 11:10:44;;;;;;;44.70;6.28;;;;;;;;;;5036693;28;20025;-76
2023/01/13 11:13:18;;;;;;;47.17;6.75;;;;;;;;;;5031573;28;20049;-74
2023/01/13 11:15:48;;;;;;;40.60;6.45;;;;;;;;;;5063369;28;20029;-74
2023/01/13 11:18:21;;;;;;;47.53;5.90;;;;;;;;;;5029119;28;20025;-74
2023/01/13 11:20:46;;;;;;;;;;;;;;;;;;5032404;28;20037;-76
2023/01/13 11:23:26;;;;;;;38.03;6.35;;;;;;;;;;5030232;28;19955;-76
2023/01/13 11:25:55;;;;;;;44.72;8.30;;;;;;;;;;5029413;28;20036;-76
2023/01/13 11:28:38;;;;;;;36.75;5.22;;;;;;;;;;5026483;28;20588;-75
2023/01/13 11:31:04;;;;;;;32.78;5.00;;;;;;;;;;5024334;28;20726;-76
2023/01/13 11:33:34;;;;;;;40.80;6.22;;;;;;;;;;5024724;28;20099;-75
2023/01/13 11:36:17;;;;;;;36.42;5.63;;;;;;;;;;5063057;28;20037;-75
2023/01/13 11:38:53;;;;;;;42.92;6.43;;;;;;;;;;5067220;28;20037;-74
2023/01/13 11:41:31;;;;;;;40.50;6.40;;;;;;;;;;5024840;28;20044;-77
2023/01/13 11:44:06;;;;;;;37.47;5.47;;;;;;;;;;5020413;28;20040;-73
2023/01/13 11:46:31;;;;;;;35.28;5.93;;;;;;;;;;5030496;28;20036;-75
2023/01/13 11:48:58;;;;;;;43.42;6.65;;;;;;;;;;5042330;28;20062;-73
2023/01/13 11:51:33;;;;;;;36.30;5.55;;;;;;;;;;4996996;28;20117;-74
2023/01/13 11:54:02;;;;;;;38.10;6.43;;;;;;;;;;5039994;28;20568;-74
2023/01/13 11:56:46;;;;;;;46.45;6.60;;;;;;;;;;5041229;28;20029;-75
2023/01/13 11:59:17;;;;;;;45.22;6.20;;;;;;;;;;5040530;28;20041;-74
2023/01/13 12:02:08;;;;;;;42.20;6.60;;;;;;;;;;5041214;28;20039;-74
2023/01/13 12:04:50;;;;;;;42.60;8.32;;;;;;;;;;5040240;28;20691;-75
2023/01/13 12:07:20;;;;;;;34.65;6.05;;;;;;;;;;5041819;28;20028;-74
2023/01/13 12:10:03;;;;;;;44.90;6.60;;;;;;;;;;5039537;28;20514;-77
2023/01/13 12:12:50;;;;;;;41.75;7.45;;;;;;;;;;5040172;28;20036;-75
2023/01/13 12:15:29;;;;;;;55.95;6.85;;;;;;;;;;5040375;28;20029;-75
2023/01/13 12:18:07;;;;;;;38.63;6.18;;;;;;;;;;5041508;28;20079;-74
2023/01/13 12:20:52;;;;;;;47.75;5.93;;;;;;;;;;5022637;28;20398;-75
2023/01/13 12:23:23;;;;;;;37.35;5.70;;;;;;;;;;5030550;28;20037;-76
2023/01/13 12:25:53;;;;;;;43.55;5.85;;;;;;;;;;5051930;28;20047;-76
2023/01/13 12:28:25;;;;;;;40.00;5.78;;;;;;;;;;5052201;28;20044;-77
2023/01/13 12:30:50;;;;;;;;;;;;;;;;;;5052940;28;20036;-76
2023/01/13 12:33:24;;;;;;;39.60;5.72;;;;;;;;;;5054553;28;20184;-76
2023/01/13 12:36:05;;;;;;;38.58;5.82;;;;;;;;;;5051655;28;20040;-77
2023/01/13 12:38:35;;;;;;;47.83;7.53;;;;;;;;;;5057581;28;20048;-74
2023/01/13 12:41:23;;;;;;;45.03;6.45;;;;;;;;;;5058529;28;20049;-77
2023/01/13 12:46:34;;;;;;;36.70;5.47;;;;;;;;;;5055755;28;20032;-76
2023/01/13 12:49:00;;;;;;;37.63;6.53;;;;;;;;;;5056692;28;20099;-76
2023/01/13 12:51:26;;;;;;;43.85;6.13;;;;;;;;;;5063622;28;20492;-77
2023/01/13 12:53:53;;;;;;;44.47;7.25;;;;;;;;;;5063721;28;20074;-76
2023/01/13 12:56:28;;;;;;;49.08;6.60;;;;;;;;;;5055746;28;20527;-76
2023/01/13 12:59:13;;;;;;;39.47;6.07;;;;;;;;;;5054002;28;20550;-78
2023/01/13 13:01:39;;;;;;;34.70;5.75;;;;;;;;;;5056251;28;20131;-77
2023/01/13 13:04:08;;;;;;;33.78;5.82;;;;;;;;;;5054505;28;20028;-77
2023/01/13 13:06:36;;;;;;;47.47;6.65;;;;;;;;;;5052189;28;20060;-76
2023/01/13 13:09:04;;;;;;;51.00;8.02;;;;;;;;;;5051376;28;20376;-75
2023/01/13 13:14:38;;;;;;;39.13;6.60;;;;;;;;;;5038166;28;20370;-76
2023/01/13 13:17:24;;;;;;;35.08;5.80;;;;;;;;;;5048874;28;20115;-77
2023/01/13 13:19:49;;;;;;;47.05;6.90;;;;;;;;;;5054353;28;20042;-74
2023/01/13 13:22:18;;;;;;;38.00;5.78;;;;;;;;;;5057744;28;20326;-75
2023/01/13 13:24:50;;;;;;;50.22;6.72;;;;;;;;;;5050376;28;20340;-75
2023/01/13 13:27:21;;;;;;;44.30;5.40;;;;;;;;;;5049299;28;20040;-75
2023/01/13 13:29:51;;;;;;;45.95;6.72;;;;;;;;;;5050429;28;20078;-76
2023/01/13 13:32:28;;;;;;;35.08;4.90;;;;;;;;;;5070055;28;20036;-76
2023/01/13 13:35:34;;;;;;;44.70;7.32;;;;;;;;;;5050340;28;20020;-76
2023/01/13 13:46:46;;;;;;;47.60;6.25;;;;;;;;;;5040879;28;20032;-76
2023/01/13 13:49:12;;;;;;;48.40;7.90;;;;;;;;;;5030003;28;20060;-76
2023/01/13 13:51:48;;;;;;;49.97;6.68;;;;;;;;;;5012051;28;20820;-76
2023/01/13 13:54:15;;;;;;;39.05;6.05;;;;;;;;;;5016243;28;20025;-77
2023/01/13 13:56:43;;;;;;;43.83;6.40;;;;;;;;;;5016003;28;20357;-75
2023/01/13 13:59:12;;;;;;;39.85;5.85;;;;;;;;;;5012524;28;20041;-75
2023/01/13 14:01:39;;;;;;;41.92;5.53;;;;;;;;;;5013435;28;20033;-75
2023/01/13 14:04:19;;;;;;;39.30;6.80;;;;;;;;;;5010138;28;20643;-75
2023/01/13 14:07:14;;;;;;;39.70;5.40;;;;;;;;;;5029708;28;20034;-76
2023/01/13 14:09:43;;;;;;;44.90;5.20;;;;;;;;;;5010782;28;20034;-75
2023/01/13 14:12:19;;;;;;;46.35;6.70;;;;;;;;;;5017006;28;20029;-75
2023/01/13 14:14:45;;;;;;;47.67;6.47;;;;;;;;;;5017378;28;20699;-75
2023/01/13 14:17:18;;;;;;;43.90;6.93;;;;;;;;;;5010523;28;20144;-77
2023/01/13 14:19:49;;;;;;;43.15;6.50;;;;;;;;;;5008756;28;20516;-77
2023/01/13 14:22:15;;;;;;;49.35;6.60;;;;;;;;;;5009715;28;20033;-77
2023/01/13 14:24:45;;;;;;;36.60;5.50;;;;;;;;;;5011437;28;20056;-77
2023/01/13 14:27:17;;;;;;;40.75;6.10;;;;;;;;;;5015482;28;20505;-77
2023/01/13 14:29:45;;;;;;;39.42;5.10;;;;;;;;;;5015701;28;20087;-76
2023/01/13 14:32:18;;;;;;;36.70;6.05;;;;;;;;;;5003160;28;20645;-78
2023/01/13 14:34:43;;;;;;;34.25;6.65;;;;;;;;;;5003810;28;20136;-74
2023/01/13 14:37:54;;;;;;;42.85;6.75;;;;;;;;;;5004261;28;20037;-75
2023/01/13 14:40:43;;;;;;;51.72;6.60;;;;;;;;;;4925320;28;20949;-75
2023/01/13 14:43:13;;;;;;;40.20;6.13;;;;;;;;;;5006498;28;20033;-75
2023/01/13 14:45:42;;;;;;;51.25;6.18;;;;;;;;;;5004650;28;20029;-75
2023/01/13 14:48:07;;;;;;;37.53;6.05;;;;;;;;;;5004416;28;20116;-73
2023/01/13 14:50:33;;;;;;;51.42;8.63;;;;;;;;;;4977572;28;20664;-76
2023/01/13 14:52:59;;;;;;;34.75;5.97;;;;;;;;;;5002474;28;20202;-76
2023/01/13 14:55:25;;;;;;;41.50;6.15;;;;;;;;;;5003905;28;20038;-76
2023/01/13 14:57:51;;;;;;;36.40;5.82;;;;;;;;;;5005020;28;20087;-75
2023/01/13 15:00:19;;;;;;;37.15;6.05;;;;;;;;;;5002139;28;20045;-75
2023/01/13 15:02:56;;;;;;;49.58;7.43;;;;;;;;;;5004678;28;20038;-75
2023/01/13 15:05:21;;;;;;;41.58;7.97;;;;;;;;;;5023184;28;20063;-75
2023/01/13 15:07:51;;;;;;;44.45;7.30;;;;;;;;;;5034294;28;20029;-75
2023/01/13 15:10:21;;;;;;;39.10;6.20;;;;;;;;;;5006829;28;20029;-77
2023/01/13 15:12:50;;;;;;;46.58;6.05;;;;;;;;;;5035126;28;20287;-75
2023/01/13 15:15:21;;;;;;;41.30;6.82;;;;;;;;;;5035396;28;20029;-77
2023/01/13 15:17:46;;;;;;;33.85;5.45;;;;;;;;;;5037623;28;20029;-75
2023/01/13 15:20:12;;;;;;;49.42;6.95;;;;;;;;;;5033801;28;20055;-76
2023/01/13 15:22:37;;;;;;;48.78;6.50;;;;;;;;;;5032879;28;20033;-76
2023/01/13 15:25:05;;;;;;;40.10;5.43;;;;;;;;;;5020950;28;20525;-76
2023/01/13 15:27:31;;;;;;;47.75;8.40;;;;;;;;;;5037804;28;20041;-75
2023/01/13 15:29:57;;;;;;;57.85;8.07;;;;;;;;;;5037696;28;20124;-75
2023/01/13 15:32:22;;;;;;;55.50;8.15;;;;;;;;;;5033307;28;20341;-76
2023/01/13 15:34:48;;;;;;;42.47;6.72;;;;;;;;;;5036514;28;20496;-75
2023/01/13 15:37:15;;;;;;;57.30;7.45;;;;;;;;;;5038352;28;20041;-75
2023/01/13 15:39:43;;;;;;;45.00;6.55;;;;;;;;;;5031577;28;20044;-76
2023/01/13 15:47:42;;;;;;;46.53;6.25;;;;;;;;;;5022091;28;20371;-75
2023/01/13 15:50:17;;;;;;;45.63;6.60;;;;;;;;;;5023026;28;20273;-75